createdAt,value
2017-05-12T00:01:04.415Z,4.12
2017-05-12T00:03:32.516Z,3.95
2017-05-12T00:06:00.430Z,4.98
2017-05-12T00:08:28.405Z,4.27
2017-05-12T00:10:56.647Z,4.93
2017-05-12T00:13:25.077Z,4.53
2017-05-12T00:15:52.834Z,4.62
2017-05-12T00:18:20.713Z,4.08
2017-05-12T00:20:49.340Z,3.52
2017-05-12T00:23:17.210Z,4.18
2017-05-12T00:25:45.090Z,5.35
2017-05-12T00:28:12.955Z,3.48
2017-05-12T00:30:40.811Z,6.33
2017-05-12T00:33:08.690Z,3.07
2017-05-12T00:35:36.171Z,4.13
2017-05-12T00:38:04.033Z,3.90
2017-05-12T00:40:31.512Z,4.52
2017-05-12T00:42:59.375Z,4.90
2017-05-12T00:45:27.259Z,4.32
2017-05-12T00:47:56.028Z,5.28
2017-05-12T00:50:23.903Z,3.58
2017-05-12T00:52:51.367Z,6.00
2017-05-12T00:55:19.242Z,4.75
2017-05-12T00:57:47.109Z,3.93
2017-05-12T01:00:14.981Z,5.57
2017-05-12T01:02:42.459Z,4.15
2017-05-12T01:05:09.944Z,5.37
2017-05-12T01:07:37.406Z,4.50
2017-05-12T01:10:05.287Z,7.88
2017-05-12T01:12:33.151Z,5.00
2017-05-12T01:15:01.030Z,5.20
2017-05-12T01:17:28.894Z,6.35
2017-05-12T01:19:56.775Z,5.28
2017-05-12T01:22:24.243Z,5.37
2017-05-12T01:24:51.722Z,6.95
2017-05-12T01:27:19.186Z,6.52
2017-05-12T01:29:47.183Z,6.72
2017-05-12T01:32:15.051Z,6.77
2017-05-12T01:34:43.424Z,8.27
2017-05-12T01:37:11.305Z,7.02
2017-05-12T01:39:39.167Z,13.22
2017-05-12T01:42:07.139Z,6.77
2017-05-12T01:44:35.003Z,7.80
2017-05-12T01:47:02.867Z,7.78
2017-05-12T01:49:30.748Z,7.82
2017-05-12T01:51:58.615Z,9.18
2017-05-12T01:54:27.020Z,8.53
2017-05-12T01:56:54.872Z,8.87
2017-05-12T01:59:22.739Z,8.85
2017-05-12T02:01:50.216Z,8.63
2017-05-12T02:04:17.679Z,8.62
2017-05-12T02:06:45.851Z,7.65
2017-05-12T02:09:13.718Z,7.85
2017-05-12T02:11:41.579Z,7.48
2017-05-12T02:14:09.463Z,7.87
2017-05-12T02:16:36.932Z,9.75
2017-05-12T02:19:04.671Z,7.07
2017-05-12T02:21:32.906Z,6.20
2017-05-12T02:24:00.763Z,7.62
2017-05-12T02:26:28.643Z,6.50
2017-05-12T02:28:56.511Z,6.90
2017-05-12T02:31:24.661Z,6.50
2017-05-12T02:33:52.526Z,7.40
2017-05-12T02:36:20.382Z,5.87
2017-05-12T02:38:48.524Z,5.88
2017-05-12T02:41:16.390Z,6.48
2017-05-12T02:43:44.624Z,5.92
2017-05-12T02:46:14.591Z,7.73
2017-05-12T02:48:42.455Z,6.80
2017-05-12T02:51:10.129Z,6.32
2017-05-12T02:53:37.987Z,6.92
2017-05-12T02:56:05.455Z,7.83
2017-05-12T02:58:32.939Z,6.38
2017-05-12T03:01:00.813Z,7.98
2017-05-12T03:03:29.122Z,7.00
2017-05-12T03:05:56.985Z,10.30
2017-05-12T03:08:24.851Z,9.72
2017-05-12T03:10:53.098Z,8.88
2017-05-12T03:13:20.959Z,10.03
2017-05-12T03:15:49.107Z,9.53
2017-05-12T03:18:16.576Z,10.72
2017-05-12T03:20:44.439Z,10.05
2017-05-12T03:23:11.937Z,11.33
2017-05-12T03:25:39.803Z,11.35
2017-05-12T03:28:08.000Z,11.68
2017-05-12T03:30:35.869Z,11.70
2017-05-12T03:33:03.338Z,11.77
2017-05-12T03:35:31.223Z,12.82
2017-05-12T03:37:58.708Z,12.60
2017-05-12T03:40:26.574Z,11.00
2017-05-12T03:42:54.465Z,12.03
2017-05-12T03:45:22.710Z,13.53
2017-05-12T03:47:50.873Z,13.90
2017-05-12T03:50:18.744Z,13.57
2017-05-12T03:52:46.628Z,13.17
2017-05-12T03:55:14.511Z,15.17
2017-05-12T03:57:41.982Z,15.00
2017-05-12T04:00:10.604Z,15.45
2017-05-12T04:02:38.471Z,15.68
2017-05-12T04:05:06.348Z,14.77
2017-05-12T04:07:33.846Z,15.43
2017-05-12T04:10:01.715Z,15.58
2017-05-12T04:12:29.738Z,12.13
2017-05-12T04:14:57.618Z,14.10
2017-05-12T04:17:25.532Z,16.27
2017-05-12T04:19:53.024Z,14.30
2017-05-12T04:22:20.499Z,13.52
2017-05-12T04:24:48.392Z,14.50
2017-05-12T04:27:16.263Z,15.60
2017-05-12T04:29:43.863Z,15.55
2017-05-12T04:32:11.734Z,13.60
2017-05-12T04:34:39.608Z,12.68
2017-05-12T04:37:07.202Z,13.50
2017-05-12T04:39:35.071Z,15.08
2017-05-12T04:42:02.567Z,13.45
2017-05-12T04:44:30.453Z,14.38
2017-05-12T04:46:57.930Z,11.52
2017-05-12T04:49:26.193Z,15.67
2017-05-12T04:51:54.063Z,15.37
2017-05-12T04:54:21.931Z,14.97
2017-05-12T04:56:49.823Z,15.93
2017-05-12T04:59:17.690Z,16.15
2017-05-12T05:01:45.833Z,15.70
2017-05-12T05:04:13.704Z,16.25
2017-05-12T05:06:41.583Z,15.65
2017-05-12T05:09:09.470Z,18.32
2017-05-12T05:11:37.342Z,18.22
2017-05-12T05:14:05.874Z,17.37
2017-05-12T05:16:33.742Z,16.03
2017-05-12T05:19:01.607Z,17.22
2017-05-12T05:21:29.487Z,17.23
2017-05-12T05:23:57.001Z,16.67
2017-05-12T05:26:25.091Z,17.58
2017-05-12T05:28:52.954Z,18.63
2017-05-12T05:31:20.819Z,18.53
2017-05-12T05:33:48.308Z,19.15
2017-05-12T05:36:16.175Z,16.18
2017-05-12T05:38:44.331Z,18.85
2017-05-12T05:41:12.209Z,18.95
2017-05-12T05:43:40.088Z,19.83
2017-05-12T05:46:07.972Z,18.48
2017-05-12T05:48:35.856Z,17.47
2017-05-12T05:51:04.062Z,15.88
2017-05-12T05:53:31.551Z,14.60
2017-05-12T05:55:59.428Z,18.35
2017-05-12T05:58:26.925Z,18.63
2017-05-12T06:00:54.408Z,16.40
2017-05-12T06:03:22.549Z,15.88
2017-05-12T06:05:50.430Z,17.40
2017-05-12T06:08:18.307Z,17.53
2017-05-12T06:10:46.198Z,15.05
2017-05-12T06:13:14.072Z,13.03
2017-05-12T06:15:42.538Z,12.90
2017-05-12T06:18:10.420Z,12.25
2017-05-12T06:20:38.305Z,11.53
2017-05-12T06:23:06.205Z,14.43
2017-05-12T06:25:34.089Z,15.78
2017-05-12T06:28:02.280Z,16.55
2017-05-12T06:30:30.160Z,19.58
2017-05-12T06:32:58.035Z,17.67
2017-05-12T06:35:25.936Z,19.62
2017-05-12T06:37:53.412Z,21.05
2017-05-12T06:40:21.317Z,21.38
2017-05-12T06:42:49.196Z,23.37
2017-05-12T06:45:17.073Z,22.47
2017-05-12T06:47:44.971Z,25.50
2017-05-12T06:50:12.846Z,25.37
2017-05-12T06:52:41.155Z,25.02
2017-05-12T06:55:09.030Z,21.65
2017-05-12T06:57:36.504Z,21.65
2017-05-12T07:00:04.403Z,24.47
2017-05-12T07:02:32.281Z,18.48
2017-05-12T07:05:00.047Z,21.75
2017-05-12T07:07:27.924Z,23.38
2017-05-12T07:09:55.408Z,21.62
2017-05-12T07:12:23.312Z,20.93
2017-05-12T07:14:51.192Z,19.03
2017-05-12T07:17:19.104Z,17.37
2017-05-12T07:19:46.983Z,14.18
2017-05-12T07:22:14.859Z,12.70
2017-05-12T07:24:42.362Z,13.95
2017-05-12T07:27:10.241Z,15.18
2017-05-12T07:29:38.046Z,17.25
2017-05-12T07:32:05.943Z,13.27
2017-05-12T07:34:33.508Z,14.15
2017-05-12T07:37:01.017Z,12.98
2017-05-12T07:39:28.537Z,12.05
2017-05-12T07:41:56.439Z,12.68
2017-05-12T07:44:24.311Z,10.60
2017-05-12T07:46:52.029Z,11.65
2017-05-12T07:49:19.525Z,11.25
2017-05-12T07:51:47.405Z,11.68
2017-05-12T07:54:15.308Z,10.18
2017-05-12T07:56:43.184Z,12.92
2017-05-12T07:59:10.968Z,10.35
2017-05-12T08:01:38.847Z,10.65
2017-05-12T08:04:06.726Z,11.10
2017-05-12T08:06:34.636Z,11.58
2017-05-12T08:09:02.119Z,9.67
2017-05-12T08:11:30.224Z,9.13
2017-05-12T08:13:58.097Z,9.20
2017-05-12T08:16:25.968Z,9.53
2017-05-12T08:18:53.473Z,12.05
2017-05-12T08:21:20.947Z,9.25
2017-05-12T08:23:49.144Z,8.45
2017-05-12T08:26:17.024Z,10.03
2017-05-12T08:28:45.269Z,9.02
2017-05-12T08:31:13.163Z,9.75
2017-05-12T08:33:41.032Z,8.20
2017-05-12T08:36:09.237Z,9.43
2017-05-12T08:38:37.108Z,10.97
2017-05-12T08:41:04.983Z,16.23
2017-05-12T08:43:32.995Z,11.83
2017-05-12T08:46:00.476Z,10.58
2017-05-12T08:48:28.356Z,10.48
2017-05-12T08:50:56.258Z,11.00
2017-05-12T08:53:24.131Z,11.17
2017-05-12T08:55:52.031Z,11.08
2017-05-12T08:58:20.283Z,10.93
2017-05-12T09:00:47.767Z,11.92
2017-05-12T09:03:15.682Z,12.77
2017-05-12T09:05:43.702Z,11.90
2017-05-12T09:08:12.099Z,12.07
2017-05-12T09:10:39.980Z,11.48
2017-05-12T09:13:07.468Z,11.42
2017-05-12T09:15:35.362Z,10.46
2017-05-12T09:18:03.226Z,8.84
2017-05-12T09:20:31.476Z,10.00
2017-05-12T09:22:59.347Z,9.52
2017-05-12T09:25:27.223Z,10.24
2017-05-12T09:27:55.527Z,9.46
2017-05-12T09:30:23.408Z,11.32
2017-05-12T09:32:51.837Z,9.66
2017-05-12T09:35:19.312Z,10.08
2017-05-12T09:37:47.192Z,10.68
2017-05-12T09:40:15.112Z,10.93
2017-05-12T09:42:42.993Z,12.35
2017-05-12T09:45:11.263Z,11.97
2017-05-12T09:47:39.139Z,11.48
2017-05-12T09:50:07.015Z,11.42
2017-05-12T09:52:34.905Z,11.22
2017-05-12T09:55:02.787Z,11.62
2017-05-12T09:57:30.956Z,10.96
2017-05-12T09:59:58.840Z,11.02
2017-05-12T10:02:26.323Z,12.93
2017-05-12T10:04:54.224Z,11.87
2017-05-12T10:07:22.104Z,13.48
2017-05-12T10:09:50.480Z,13.56
2017-05-12T10:12:17.963Z,11.08
2017-05-12T10:14:45.438Z,12.44
2017-05-12T10:17:13.327Z,10.64
2017-05-12T10:19:40.813Z,12.40
2017-05-12T10:22:09.252Z,7.38
2017-05-12T10:24:36.732Z,8.06
2017-05-12T10:27:04.199Z,7.90
2017-05-12T10:29:32.092Z,8.34
2017-05-12T10:31:59.972Z,9.32
2017-05-12T10:34:28.386Z,9.52
2017-05-12T10:36:56.268Z,8.94
2017-05-12T10:39:23.749Z,10.40
2017-05-12T10:41:51.639Z,10.36
2017-05-12T10:44:19.516Z,10.98
2017-05-12T10:46:47.711Z,11.42
2017-05-12T10:49:15.181Z,8.80
2017-05-12T10:51:43.052Z,9.32
2017-05-12T10:54:10.559Z,9.10
2017-05-12T10:56:38.028Z,10.24
2017-05-12T10:59:05.892Z,9.48
2017-05-12T11:01:33.363Z,9.80
2017-05-12T11:04:01.235Z,10.10
2017-05-12T11:06:29.132Z,9.60
2017-05-12T11:08:56.996Z,8.48
2017-05-12T11:11:25.162Z,8.94
2017-05-12T11:13:53.032Z,9.66
2017-05-12T11:16:21.815Z,9.50
2017-05-12T11:18:49.706Z,10.66
2017-05-12T11:21:17.964Z,11.86
2017-05-12T11:23:46.416Z,10.64
2017-05-12T11:26:13.884Z,10.68
2017-05-12T11:28:41.759Z,12.98
2017-05-12T11:31:09.660Z,10.16
2017-05-12T11:33:37.528Z,10.26
2017-05-12T11:36:05.909Z,8.70
2017-05-12T11:38:34.156Z,10.80
2017-05-12T11:41:01.629Z,10.10
2017-05-12T11:43:29.126Z,10.26
2017-05-12T11:45:57.003Z,8.74
2017-05-12T11:48:24.656Z,9.02
2017-05-12T11:50:52.131Z,7.90
2017-05-12T11:53:19.603Z,8.78
2017-05-12T11:55:47.494Z,9.12
2017-05-12T11:58:15.356Z,12.58
2017-05-12T12:00:43.360Z,8.24
2017-05-12T12:03:10.839Z,7.68
2017-05-12T12:05:38.704Z,7.62
2017-05-12T12:08:06.584Z,7.22
2017-05-12T12:10:34.461Z,7.68
2017-05-12T12:13:02.599Z,9.54
2017-05-12T12:15:30.064Z,8.08
2017-05-12T12:17:57.928Z,6.40
2017-05-12T12:20:25.415Z,8.92
2017-05-12T12:22:53.280Z,7.18
2017-05-12T12:25:21.439Z,7.28
2017-05-12T12:27:49.309Z,6.86
2017-05-12T12:30:17.174Z,6.76
2017-05-12T12:32:45.067Z,5.54
2017-05-12T12:35:12.930Z,6.50
2017-05-12T12:37:41.184Z,7.10
2017-05-12T12:40:08.664Z,5.58
2017-05-12T12:42:36.532Z,4.96
2017-05-12T12:45:04.027Z,5.40
2017-05-12T12:47:31.908Z,5.18
2017-05-12T12:49:59.779Z,8.90
2017-05-12T12:52:27.535Z,7.20
2017-05-12T12:54:55.009Z,6.24
2017-05-12T12:57:22.888Z,5.22
2017-05-12T12:59:50.375Z,5.08
2017-05-12T13:02:18.236Z,7.08
2017-05-12T13:04:46.241Z,11.42
2017-05-12T13:07:14.115Z,6.92
2017-05-12T13:09:41.980Z,4.72
2017-05-12T13:12:09.865Z,4.82
2017-05-12T13:14:37.733Z,4.76
2017-05-12T13:17:05.704Z,4.48
2017-05-12T13:19:33.584Z,4.42
2017-05-12T13:22:01.451Z,4.94
2017-05-12T13:24:29.334Z,3.72
2017-05-12T13:26:57.203Z,4.08
2017-05-12T13:29:25.292Z,5.18
2017-05-12T13:31:53.159Z,3.26
2017-05-12T13:34:21.022Z,3.02
2017-05-12T13:36:49.276Z,3.92
2017-05-12T13:39:17.149Z,3.40
2017-05-12T13:41:45.421Z,3.66
2017-05-12T13:44:13.288Z,5.52
2017-05-12T13:46:41.158Z,5.76
2017-05-12T13:49:09.320Z,7.48
2017-05-12T13:51:37.644Z,6.04
2017-05-12T13:54:05.860Z,6.44
2017-05-12T13:56:34.037Z,7.82
2017-05-12T13:59:02.579Z,5.48
2017-05-12T14:01:31.308Z,4.48
2017-05-12T14:03:59.871Z,4.78
2017-05-12T14:06:27.581Z,4.04
2017-05-12T14:08:56.119Z,4.02
2017-05-12T14:11:24.852Z,3.68
2017-05-12T14:13:53.552Z,2.58
2017-05-12T14:16:21.448Z,2.68
2017-05-12T14:18:48.971Z,1.82
2017-05-12T14:21:17.657Z,1.74
2017-05-12T14:23:46.388Z,1.26
2017-05-12T14:26:14.415Z,1.30
2017-05-12T14:28:42.456Z,1.50
2017-05-12T14:31:10.805Z,1.36
2017-05-12T14:33:38.665Z,1.50
2017-05-12T14:36:07.328Z,1.62
2017-05-12T14:38:36.119Z,3.00
2017-05-12T14:41:14.037Z,2.02
2017-05-12T14:43:41.585Z,1.92
2017-05-12T14:46:10.176Z,2.22
2017-05-12T14:48:38.392Z,3.00
2017-05-12T14:51:06.415Z,2.40
2017-05-12T14:53:34.391Z,1.90
2017-05-12T14:56:03.005Z,3.02
2017-05-12T14:58:31.591Z,2.14
2017-05-12T15:01:00.333Z,1.70
2017-05-12T15:03:27.976Z,3.62
2017-05-12T15:05:56.902Z,1.72
2017-05-12T15:08:25.485Z,1.94
2017-05-12T15:10:53.749Z,1.60
2017-05-12T15:13:22.131Z,4.02
2017-05-12T15:15:50.090Z,2.04
2017-05-12T15:18:17.975Z,1.98
2017-05-12T15:20:46.340Z,1.76
2017-05-12T15:23:14.378Z,1.62
2017-05-12T15:25:42.408Z,2.68
2017-05-12T15:28:10.288Z,3.30
2017-05-12T15:30:38.433Z,2.12
2017-05-12T15:33:06.343Z,1.70
2017-05-12T15:35:34.856Z,3.70
2017-05-12T15:38:03.023Z,1.42
2017-05-12T15:40:30.487Z,4.44
2017-05-12T15:42:58.256Z,1.30
2017-05-12T15:45:25.723Z,1.62
2017-05-12T15:47:53.587Z,4.14
2017-05-12T15:50:21.473Z,1.82
2017-05-12T15:52:48.943Z,1.80
2017-05-12T15:55:17.299Z,1.90
2017-05-12T15:57:45.164Z,1.32
2017-05-12T16:00:13.032Z,1.54
2017-05-12T16:02:40.921Z,1.62
2017-05-12T16:05:08.789Z,2.12
2017-05-12T16:07:36.471Z,2.16
2017-05-12T16:10:04.708Z,2.92
2017-05-12T16:12:32.576Z,2.72
2017-05-12T16:15:00.467Z,2.70
2017-05-12T16:17:28.035Z,4.10
2017-05-12T16:19:56.261Z,1.10
2017-05-12T16:22:24.128Z,8.34
2017-05-12T16:24:52.005Z,2.86
2017-05-12T16:27:19.897Z,4.50
2017-05-12T16:29:47.767Z,1.38
2017-05-12T16:32:15.908Z,1.82
2017-05-12T16:34:43.775Z,4.86
2017-05-12T16:37:11.249Z,7.98
2017-05-12T16:39:39.140Z,1.84
2017-05-12T16:42:07.010Z,1.72
2017-05-12T16:44:34.503Z,1.96
2017-05-12T16:47:01.971Z,2.68
2017-05-12T16:49:30.064Z,1.84
2017-05-12T16:51:59.124Z,1.92
2017-05-12T16:54:28.447Z,2.90
2017-05-12T16:56:56.340Z,2.34
2017-05-12T16:59:24.720Z,7.90
2017-05-12T17:01:52.986Z,3.50
2017-05-12T17:04:20.676Z,2.66
2017-05-12T17:06:48.552Z,4.78
2017-05-12T17:09:16.435Z,3.02
2017-05-12T17:11:43.907Z,3.08
2017-05-12T17:14:11.813Z,2.68
2017-05-12T17:16:39.681Z,4.24
2017-05-12T17:19:07.924Z,3.28
2017-05-12T17:21:35.818Z,4.62
2017-05-12T17:24:04.060Z,5.56
2017-05-12T17:26:31.680Z,2.34
2017-05-12T17:28:59.552Z,2.00
2017-05-12T17:31:27.420Z,4.18
2017-05-12T17:33:55.299Z,2.88
2017-05-12T17:36:23.202Z,2.98
2017-05-12T17:38:51.077Z,4.14
2017-05-12T17:41:18.548Z,2.58
2017-05-12T17:43:46.420Z,4.04
2017-05-12T17:46:14.644Z,4.64
2017-05-12T17:48:42.608Z,4.26
2017-05-12T17:51:10.677Z,4.40
2017-05-12T17:53:38.682Z,2.38
2017-05-12T17:56:06.591Z,2.82
2017-05-12T17:58:34.493Z,4.90
2017-05-12T18:01:02.373Z,3.06
2017-05-12T18:03:30.216Z,10.84
2017-05-12T18:05:58.087Z,14.78
2017-05-12T18:08:26.094Z,10.42
2017-05-12T18:10:53.971Z,7.06
2017-05-12T18:13:21.839Z,5.40
2017-05-12T18:15:49.980Z,4.58
2017-05-12T18:18:17.640Z,4.04
2017-05-12T18:20:45.522Z,4.64
2017-05-12T18:23:13.466Z,5.40
2017-05-12T18:25:41.688Z,4.28
2017-05-12T18:28:09.440Z,4.48
2017-05-12T18:30:37.721Z,4.30
2017-05-12T18:33:05.460Z,3.60
2017-05-12T18:35:35.031Z,4.28
2017-05-12T18:38:03.081Z,9.14
2017-05-12T18:40:31.825Z,5.02
2017-05-12T18:42:59.956Z,5.00
2017-05-12T18:45:28.032Z,4.64
2017-05-12T18:47:55.620Z,9.34
2017-05-12T18:50:23.943Z,5.70
2017-05-12T18:52:52.693Z,5.50
2017-05-12T18:55:20.957Z,7.02
2017-05-12T18:57:49.163Z,5.56
2017-05-12T19:00:17.071Z,7.60
2017-05-12T19:02:45.156Z,8.60
2017-05-12T19:05:13.643Z,4.70
2017-05-12T19:07:42.471Z,6.52
2017-05-12T19:10:09.999Z,4.48
2017-05-12T19:12:38.267Z,4.52
2017-05-12T19:15:06.500Z,4.30
2017-05-12T19:17:34.505Z,4.20
2017-05-12T19:20:03.135Z,4.98
2017-05-12T19:22:31.005Z,4.74
2017-05-12T19:24:58.911Z,6.98
2017-05-12T19:27:26.781Z,4.68
2017-05-12T19:29:54.775Z,6.80
2017-05-12T19:32:22.639Z,7.00
2017-05-12T19:34:51.331Z,6.22
2017-05-12T19:37:20.136Z,6.34
2017-05-12T19:39:48.190Z,4.50
2017-05-12T19:42:16.607Z,5.32
2017-05-12T19:44:45.267Z,5.06
2017-05-12T19:47:13.873Z,4.46
2017-05-12T19:49:41.391Z,4.30
2017-05-12T19:52:08.867Z,3.38
2017-05-12T19:54:37.727Z,4.16
2017-05-12T19:57:05.408Z,3.62
2017-05-12T19:59:33.296Z,3.25
2017-05-12T20:02:01.189Z,3.68
2017-05-12T20:04:29.069Z,3.55
2017-05-12T20:06:58.061Z,3.73
2017-05-12T20:09:26.469Z,3.62
2017-05-12T20:11:55.532Z,3.60
2017-05-12T20:14:23.598Z,5.76
2017-05-12T20:16:51.761Z,4.60
2017-05-12T20:19:20.874Z,6.38
2017-05-12T20:21:49.052Z,3.35
2017-05-12T20:24:17.459Z,3.97
2017-05-12T20:26:45.351Z,4.15
2017-05-12T20:29:13.324Z,4.05
2017-05-12T20:31:41.861Z,4.30
2017-05-12T20:34:09.524Z,7.00
2017-05-12T20:36:37.447Z,4.32
2017-05-12T20:39:05.341Z,4.95
2017-05-12T20:41:33.498Z,5.43
2017-05-12T20:44:02.030Z,5.15
2017-05-12T20:46:30.337Z,5.68
2017-05-12T20:48:58.416Z,9.13
2017-05-12T20:51:26.352Z,5.60
2017-05-12T20:53:53.871Z,5.15
2017-05-12T20:56:22.562Z,5.60
2017-05-12T20:58:50.820Z,4.53
2017-05-12T21:01:19.195Z,5.30
2017-05-12T21:03:47.083Z,6.48
2017-05-12T21:06:15.148Z,6.42
2017-05-12T21:08:43.219Z,5.72
2017-05-12T21:11:11.495Z,5.72
2017-05-12T21:13:39.947Z,5.42
2017-05-12T21:16:08.013Z,5.50
2017-05-12T21:18:36.299Z,5.32
2017-05-12T21:21:04.439Z,6.13
2017-05-12T21:23:31.984Z,6.03
2017-05-12T21:25:59.988Z,6.57
2017-05-12T21:28:28.136Z,6.63
2017-05-12T21:30:57.089Z,5.43
2017-05-12T21:33:25.684Z,6.98
2017-05-12T21:35:53.820Z,5.92
2017-05-12T21:38:22.607Z,6.13
2017-05-12T21:40:51.036Z,6.55
2017-05-12T21:43:18.958Z,5.65
2017-05-12T21:45:47.261Z,6.62
2017-05-12T21:48:15.434Z,7.25
2017-05-12T21:50:43.315Z,8.45
2017-05-12T21:53:11.367Z,6.10
2017-05-12T21:55:39.436Z,6.55
2017-05-12T21:58:07.348Z,6.53
2017-05-12T22:00:35.456Z,8.12
2017-05-12T22:03:03.465Z,6.77
2017-05-12T22:05:31.360Z,6.03
2017-05-12T22:07:59.242Z,5.50
2017-05-12T22:10:27.555Z,6.17
2017-05-12T22:12:55.496Z,5.80
2017-05-12T22:15:23.363Z,6.45
2017-05-12T22:17:51.415Z,5.52
2017-05-12T22:20:19.295Z,7.42
2017-05-12T22:22:47.610Z,6.22
2017-05-12T22:25:16.001Z,7.68
2017-05-12T22:27:43.995Z,6.18
2017-05-12T22:30:11.699Z,6.30
2017-05-12T22:32:39.247Z,7.08
2017-05-12T22:35:06.753Z,7.30
2017-05-12T22:37:34.625Z,7.13
2017-05-12T22:40:02.696Z,5.80
2017-05-12T22:42:30.957Z,6.68
2017-05-12T22:44:58.719Z,8.33
2017-05-12T22:47:26.800Z,6.48
2017-05-12T22:49:54.726Z,7.07
2017-05-12T22:52:22.536Z,6.48
2017-05-12T22:54:51.047Z,5.87
2017-05-12T22:57:18.928Z,6.88
2017-05-12T22:59:47.016Z,8.35
2017-05-12T23:02:15.691Z,8.67
2017-05-12T23:04:43.867Z,7.25
2017-05-12T23:07:11.369Z,7.42
2017-05-12T23:09:39.947Z,9.30
2017-05-12T23:14:45.974Z,10.93
2017-05-12T23:17:14.437Z,7.62
2017-05-12T23:19:42.703Z,9.70
2017-05-12T23:22:10.989Z,9.15
2017-05-12T23:24:39.461Z,7.33
2017-05-12T23:27:07.326Z,7.10
2017-05-12T23:29:35.527Z,7.22
2017-05-12T23:32:03.681Z,7.88
2017-05-12T23:34:32.284Z,6.67
2017-05-12T23:37:00.863Z,6.82
2017-05-12T23:39:28.355Z,8.20
2017-05-12T23:41:56.245Z,6.83
2017-05-12T23:44:24.392Z,6.35
2017-05-12T23:46:52.477Z,7.25
2017-05-12T23:49:19.961Z,6.88
2017-05-12T23:51:47.819Z,6.65
2017-05-12T23:54:15.307Z,7.95
2017-05-12T23:56:43.166Z,10.98
2017-05-12T23:59:11.049Z,6.08
